createdAt,value
2022-11-15T00:01:26.453Z,98670.80
2022-11-15T00:06:30.899Z,98670.10
2022-11-15T00:11:35.022Z,98667.13
2022-11-15T00:16:39.362Z,98659.41
2022-11-15T00:21:43.916Z,98658.23
2022-11-15T00:26:48.210Z,98654.39
2022-11-15T00:31:52.602Z,98651.77
2022-11-15T00:36:57.192Z,98645.43
2022-11-15T00:42:01.943Z,98638.80
2022-11-15T00:47:06.603Z,98635.43
2022-11-15T00:52:11.152Z,98630.23
2022-11-15T00:57:15.524Z,98624.67
2022-11-15T01:02:19.872Z,98619.70
2022-11-15T01:07:23.803Z,98614.20
2022-11-15T01:12:28.192Z,98612.31
2022-11-15T01:17:32.782Z,98613.02
2022-11-15T01:22:37.002Z,98606.33
2022-11-15T01:27:41.277Z,98604.85
2022-11-15T01:32:45.193Z,98598.64
2022-11-15T01:37:49.716Z,98592.66
2022-11-15T01:42:54.266Z,98584.17
2022-11-15T01:47:59.238Z,98575.42
2022-11-15T01:53:03.775Z,98573.95
2022-11-15T01:58:08.746Z,98563.96
2022-11-15T02:03:13.272Z,98563.25
2022-11-15T02:08:21.153Z,98557.76
2022-11-15T02:13:25.460Z,98546.49
2022-11-15T02:18:32.926Z,98536.50
2022-11-15T02:23:54.027Z,98529.77
2022-11-15T02:29:00.947Z,98528.25
2022-11-15T02:34:07.611Z,98529.13
2022-11-15T02:39:15.143Z,98528.73
2022-11-15T02:44:23.802Z,98528.74
2022-11-15T02:49:29.602Z,98520.73
2022-11-15T02:54:34.955Z,98519.32
2022-11-15T02:59:48.444Z,98510.50
2022-11-15T03:04:55.512Z,98502.08
2022-11-15T03:10:04.027Z,98499.19
2022-11-15T03:15:11.971Z,98495.27
2022-11-15T03:20:18.266Z,98495.74
2022-11-15T03:25:24.192Z,98492.92
2022-11-15T03:30:28.743Z,98482.77
2022-11-15T03:35:35.406Z,98476.40
2022-11-15T03:40:40.972Z,98468.52
2022-11-15T03:45:56.205Z,98460.66
2022-11-15T03:51:00.494Z,98460.73
2022-11-15T03:56:04.972Z,98457.04
2022-11-15T04:01:09.352Z,98448.55
2022-11-15T04:06:13.599Z,98440.30
2022-11-15T04:11:17.931Z,98438.48
2022-11-15T04:16:22.108Z,98435.05
2022-11-15T04:21:44.461Z,98436.47
2022-11-15T04:26:49.423Z,98427.11
2022-11-15T04:31:53.902Z,98423.66
2022-11-15T04:37:13.444Z,98418.47
2022-11-15T04:42:17.964Z,98409.67
2022-11-15T04:47:22.361Z,98411.79
2022-11-15T04:52:26.708Z,98407.77
2022-11-15T04:57:30.925Z,98401.27
2022-11-15T05:02:49.344Z,98392.45
2022-11-15T05:07:54.303Z,98384.98
2022-11-15T05:12:58.873Z,98384.29
2022-11-15T05:18:03.009Z,98383.84
2022-11-15T05:23:07.399Z,98385.09
2022-11-15T05:28:11.741Z,98377.54
2022-11-15T05:33:16.131Z,98374.70
2022-11-15T05:38:20.967Z,98368.83
2022-11-15T05:43:25.739Z,98364.60
2022-11-15T05:48:29.871Z,98355.55
2022-11-15T05:53:34.686Z,98342.65
2022-11-15T05:58:39.464Z,98351.94
2022-11-15T06:03:43.869Z,98354.14
2022-11-15T06:08:48.560Z,98358.48
2022-11-15T06:13:53.249Z,98361.33
2022-11-15T06:18:58.092Z,98356.45
2022-11-15T06:24:02.694Z,98358.90
2022-11-15T06:29:07.254Z,98362.75
2022-11-15T06:34:12.231Z,98364.48
2022-11-15T06:39:16.429Z,98366.23
2022-11-15T06:44:20.779Z,98373.78
2022-11-15T06:49:24.930Z,98375.20
2022-11-15T06:54:28.962Z,98376.77
2022-11-15T06:59:37.766Z,98378.73
2022-11-15T07:04:44.742Z,98381.95
2022-11-15T07:09:49.176Z,98372.69
2022-11-15T07:14:53.613Z,98373.48
2022-11-15T07:19:57.737Z,98372.61
2022-11-15T07:25:02.377Z,98373.96
2022-11-15T07:30:08.780Z,98371.05
2022-11-15T07:35:13.484Z,98370.52
2022-11-15T07:40:17.704Z,98369.88
2022-11-15T07:45:22.072Z,98368.44
2022-11-15T07:50:26.373Z,98367.98
2022-11-15T07:55:30.874Z,98369.96
2022-11-15T08:00:35.562Z,98358.23
2022-11-15T08:05:40.791Z,98357.29
2022-11-15T08:10:45.171Z,98356.17
2022-11-15T08:15:52.247Z,98349.08
2022-11-15T08:21:01.691Z,98349.13
2022-11-15T08:26:06.271Z,98350.21
2022-11-15T08:31:15.400Z,98342.20
2022-11-15T08:36:19.621Z,98335.10
2022-11-15T08:41:26.464Z,98338.48
2022-11-15T08:46:31.321Z,98332.72
2022-11-15T08:51:36.166Z,98334.60
2022-11-15T08:56:40.274Z,98339.25
2022-11-15T09:01:44.709Z,98334.59
2022-11-15T09:06:49.632Z,98330.74
2022-11-15T09:11:58.065Z,98327.66
2022-11-15T09:17:05.785Z,98325.13
2022-11-15T09:22:10.342Z,98321.04
2022-11-15T09:27:15.071Z,98318.36
2022-11-15T09:32:19.361Z,98308.44
2022-11-15T09:37:23.674Z,98299.30
2022-11-15T09:42:32.601Z,98289.17
2022-11-15T09:47:51.112Z,98279.09
2022-11-15T09:52:56.668Z,98271.17
2022-11-15T09:58:03.060Z,98258.05
2022-11-15T10:03:12.349Z,98243.40
2022-11-15T10:08:25.166Z,98237.15
2022-11-15T10:13:31.412Z,98229.88
2022-11-15T10:18:36.852Z,98227.45
2022-11-15T10:23:41.182Z,98225.98
2022-11-15T10:28:45.491Z,98223.70
2022-11-15T10:33:49.911Z,98217.41
2022-11-15T10:38:55.470Z,98214.97
2022-11-15T10:44:11.221Z,98214.38
2022-11-15T10:49:16.731Z,98205.02
2022-11-15T10:54:24.601Z,98197.78
2022-11-15T10:59:31.833Z,98196.05
2022-11-15T11:04:51.996Z,98190.93
2022-11-15T11:10:13.384Z,98193.76
2022-11-15T11:15:29.600Z,98187.99
2022-11-15T11:20:37.002Z,98182.66
2022-11-15T11:25:46.981Z,98176.22
2022-11-15T11:30:59.200Z,98168.44
2022-11-15T11:36:11.411Z,98159.95
2022-11-15T11:41:20.394Z,98155.23
2022-11-15T11:46:30.640Z,98143.70
2022-11-15T11:51:38.495Z,98139.45
2022-11-15T11:56:44.846Z,98129.55
2022-11-15T12:01:49.292Z,98122.02
2022-11-15T12:06:58.779Z,98115.52
2022-11-15T12:12:08.690Z,98110.25
2022-11-15T12:17:13.813Z,98111.82
2022-11-15T12:22:21.569Z,98104.98
2022-11-15T12:27:28.820Z,98094.98
2022-11-15T12:32:34.711Z,98085.02
2022-11-15T12:37:59.045Z,98080.73
2022-11-15T12:43:04.992Z,98075.45
2022-11-15T12:48:27.261Z,98072.63
2022-11-15T12:53:32.590Z,98066.00
2022-11-15T12:58:42.553Z,98064.19
2022-11-15T13:04:00.942Z,98060.74
2022-11-15T13:09:05.860Z,98057.44
2022-11-15T13:14:24.460Z,98047.41
2022-11-15T13:19:28.875Z,98039.45
2022-11-15T13:24:33.361Z,98031.67
2022-11-15T13:29:37.534Z,98028.16
2022-11-15T13:34:51.717Z,98028.91
2022-11-15T13:40:12.343Z,98023.09
2022-11-15T13:45:18.079Z,98018.20
2022-11-15T13:50:24.510Z,98018.70
2022-11-15T13:55:29.218Z,98011.00
2022-11-15T14:00:36.560Z,98007.26
2022-11-15T14:05:41.021Z,98005.14
2022-11-15T14:10:45.580Z,98004.45
2022-11-15T14:15:50.462Z,98005.00
2022-11-15T14:21:07.493Z,98000.69
2022-11-15T14:26:27.700Z,97989.38
2022-11-15T14:31:32.283Z,97983.00
2022-11-15T14:36:36.904Z,97981.77
2022-11-15T14:41:41.300Z,97978.95
2022-11-15T14:46:45.570Z,97974.58
2022-11-15T14:51:50.012Z,97971.04
2022-11-15T14:56:54.392Z,97965.95
2022-11-15T15:01:59.821Z,97962.19
2022-11-15T15:07:05.615Z,97953.62
2022-11-15T15:12:16.961Z,97946.40
2022-11-15T15:17:21.543Z,97949.21
2022-11-15T15:22:28.364Z,97943.80
2022-11-15T15:27:32.922Z,97933.77
2022-11-15T15:32:37.101Z,97933.70
2022-11-15T15:37:41.351Z,97931.59
2022-11-15T15:42:45.608Z,97932.62
2022-11-15T15:47:52.605Z,97927.90
2022-11-15T15:52:57.544Z,97923.58
2022-11-15T15:58:02.120Z,97924.30
2022-11-15T16:03:06.714Z,97919.52
2022-11-15T16:08:17.811Z,97914.67
2022-11-15T16:13:22.363Z,97923.46
2022-11-15T16:18:27.061Z,97921.59
2022-11-15T16:23:31.614Z,97922.15
2022-11-15T16:28:36.068Z,97928.98
2022-11-15T16:33:41.308Z,97929.86
2022-11-15T16:38:45.411Z,97927.70
2022-11-15T16:43:50.033Z,97923.67
2022-11-15T16:48:54.655Z,97918.76
2022-11-15T16:53:58.903Z,97918.20
2022-11-15T16:59:03.121Z,97913.56
2022-11-15T17:04:12.625Z,97910.98
2022-11-15T17:09:18.143Z,97902.95
2022-11-15T17:14:23.074Z,97898.56
2022-11-15T17:19:27.581Z,97893.29
2022-11-15T17:24:32.322Z,97891.80
2022-11-15T17:29:36.803Z,97891.81
2022-11-15T17:34:41.174Z,97886.68
2022-11-15T17:39:45.809Z,97882.20
2022-11-15T17:44:50.309Z,97879.15
2022-11-15T17:49:55.073Z,97872.55
2022-11-15T17:54:59.206Z,97864.57
2022-11-15T18:00:05.183Z,97854.83
2022-11-15T18:05:10.395Z,97848.06
2022-11-15T18:10:15.052Z,97837.39
2022-11-15T18:15:21.156Z,97824.56
2022-11-15T18:20:28.945Z,97815.67
2022-11-15T18:25:34.062Z,97808.92
2022-11-15T18:30:40.990Z,97811.59
2022-11-15T18:35:45.560Z,97811.98
2022-11-15T18:40:49.863Z,97818.10
2022-11-15T18:45:54.661Z,97826.67
2022-11-15T18:51:05.111Z,97826.23
2022-11-15T18:56:10.609Z,97822.23
2022-11-15T19:01:15.609Z,97816.10
2022-11-15T19:06:20.821Z,97812.04
2022-11-15T19:11:27.952Z,97810.55
2022-11-15T19:16:33.821Z,97813.54
2022-11-15T19:21:38.420Z,97815.98
2022-11-15T19:26:43.102Z,97811.27
2022-11-15T19:31:48.361Z,97806.27
2022-11-15T19:36:52.681Z,97801.77
2022-11-15T19:41:57.056Z,97805.02
2022-11-15T19:47:01.830Z,97804.87
2022-11-15T19:52:06.867Z,97803.40
2022-11-15T19:57:11.226Z,97797.41
2022-11-15T20:02:16.060Z,97789.40
2022-11-15T20:07:20.564Z,97783.91
2022-11-15T20:12:25.020Z,97778.72
2022-11-15T20:17:29.480Z,97775.42
2022-11-15T20:22:33.734Z,97772.38
2022-11-15T20:27:38.040Z,97771.27
2022-11-15T20:32:42.554Z,97773.72
2022-11-15T20:37:47.083Z,97767.54
2022-11-15T20:42:54.512Z,97766.51
2022-11-15T20:47:59.579Z,97770.36
2022-11-15T20:53:04.087Z,97760.78
2022-11-15T20:58:08.262Z,97755.68
2022-11-15T21:03:12.622Z,97753.48
2022-11-15T21:08:16.981Z,97749.64
2022-11-15T21:13:21.220Z,97746.74
2022-11-15T21:18:25.722Z,97732.77
2022-11-15T21:23:30.160Z,97729.39
2022-11-15T21:28:34.949Z,97723.81
2022-11-15T21:33:39.655Z,97718.10
2022-11-15T21:38:44.403Z,97713.48
2022-11-15T21:43:48.930Z,97719.29
2022-11-15T21:48:53.313Z,97718.19
2022-11-15T21:53:57.764Z,97711.44
2022-11-15T21:59:02.320Z,97697.77
2022-11-15T22:04:07.257Z,97690.08
2022-11-15T22:09:11.800Z,97684.35
2022-11-15T22:14:17.051Z,97681.53
2022-11-15T22:19:22.380Z,97669.53
2022-11-15T22:24:27.071Z,97660.27
2022-11-15T22:29:31.364Z,97660.03
2022-11-15T22:34:36.012Z,97661.61
2022-11-15T22:39:41.852Z,97650.29
2022-11-15T22:44:46.501Z,97648.86
2022-11-15T22:49:51.042Z,97643.85
2022-11-15T22:54:55.795Z,97631.14
2022-11-15T23:00:00.289Z,97630.11
2022-11-15T23:05:05.985Z,97628.80
2022-11-15T23:10:29.544Z,97615.66
2022-11-15T23:15:48.523Z,97606.95
2022-11-15T23:20:53.571Z,97598.84
2022-11-15T23:26:01.008Z,97600.58
2022-11-15T23:31:24.564Z,97607.23
2022-11-15T23:36:29.530Z,97604.86
2022-11-15T23:41:33.609Z,97596.48
2022-11-15T23:46:38.201Z,97593.34
2022-11-15T23:51:42.861Z,97577.26
2022-11-15T23:56:47.594Z,97568.21
